Time;durP1;ratioP1;P1;durP2;ratioP2;P2;SDS_P1;SDS_P2;PMS_P1;PMS_P2;Temp;Humidity;BMP_temperature;BMP_pressure;BME280_temperature;BME280_humidity;BME280_pressure;Samples;Min_cycle;Max_cycle;Signal;HPM_P1;HPM_P2
2023/05/19 00:01:53;;;;;;;21.27;9.68;;;;;;;7.93;88.02;102468.13;4853656;29;20029;-78
2023/05/19 00:04:20;;;;;;;27.13;10.52;;;;;;;7.92;87.58;102466.34;4849053;29;20096;-78
2023/05/19 00:06:50;;;;;;;24.20;10.00;;;;;;;7.85;87.45;102461.22;4862124;29;20029;-77
2023/05/19 00:09:16;;;;;;;23.05;10.38;;;;;;;7.86;87.96;102464.78;4852061;29;20471;-78
2023/05/19 00:11:41;;;;;;;24.33;11.10;;;;;;;7.82;87.56;102461.34;4851923;29;20059;-78
2023/05/19 00:14:08;;;;;;;24.75;10.73;;;;;;;7.81;87.03;102464.09;4852456;29;20041;-78
2023/05/19 00:16:35;;;;;;;24.83;10.57;;;;;;;7.79;87.90;102466.81;4860864;29;20042;-77
2023/05/19 00:19:02;;;;;;;21.55;9.90;;;;;;;7.77;87.82;102465.13;4853626;29;20077;-78
2023/05/19 00:21:29;;;;;;;26.05;10.07;;;;;;;7.76;88.12;102460.69;4853608;29;20438;-78
2023/05/19 00:23:54;;;;;;;20.08;9.10;;;;;;;7.75;88.18;102448.25;4852957;29;20497;-78
2023/05/19 00:26:21;;;;;;;22.23;9.25;;;;;;;7.71;88.42;102447.47;4861682;29;20033;-78
2023/05/19 00:28:47;;;;;;;23.42;9.93;;;;;;;7.68;88.38;102450.25;4853315;29;20033;-78
2023/05/19 00:31:12;;;;;;;24.83;10.32;;;;;;;7.65;88.11;102445.88;4862337;29;20041;-78
2023/05/19 00:33:37;;;;;;;22.67;10.23;;;;;;;7.62;88.09;102437.97;4846908;29;20064;-78
2023/05/19 00:36:03;;;;;;;21.75;9.80;;;;;;;7.63;88.33;102438.84;4860092;29;20121;-78
2023/05/19 00:38:33;;;;;;;23.65;9.50;;;;;;;7.60;88.24;102445.19;4853985;29;20085;-78
2023/05/19 00:40:59;;;;;;;22.30;9.68;;;;;;;7.60;88.92;102437.16;4860157;29;20045;-78
2023/05/19 00:43:24;;;;;;;25.30;9.82;;;;;;;7.56;89.05;102438.19;4861519;29;20037;-78
2023/05/19 00:45:50;;;;;;;21.95;9.68;;;;;;;7.54;89.04;102432.03;4860300;29;20059;-78
2023/05/19 00:48:15;;;;;;;22.23;9.25;;;;;;;7.54;89.20;102429.34;4856201;29;20461;-78
2023/05/19 00:50:41;;;;;;;25.25;10.32;;;;;;;7.53;88.70;102431.13;4855278;29;20033;-78
2023/05/19 00:53:07;;;;;;;23.58;9.63;;;;;;;7.49;89.43;102431.28;4860812;29;20023;-78
2023/05/19 00:55:35;;;;;;;22.38;9.50;;;;;;;7.47;89.36;102433.16;4859586;29;20022;-78
2023/05/19 00:58:00;;;;;;;21.45;9.07;;;;;;;7.46;89.55;102428.72;4860024;29;20030;-78
2023/05/19 01:00:29;;;;;;;21.42;9.43;;;;;;;7.45;89.65;102440.34;4860613;29;20025;-78
2023/05/19 01:02:55;;;;;;;23.30;9.10;;;;;;;7.44;90.00;102444.84;4860122;29;20546;-75
2023/05/19 01:05:21;;;;;;;21.08;8.82;;;;;;;7.40;89.21;102440.50;4855004;29;20028;-75
2023/05/19 01:07:50;;;;;;;23.95;9.85;;;;;;;7.38;89.98;102436.13;4854824;29;20029;-75
2023/05/19 01:10:16;;;;;;;21.90;9.82;;;;;;;7.39;90.36;102437.88;4859263;29;20398;-75
2023/05/19 01:12:42;;;;;;;22.38;9.68;;;;;;;7.37;90.73;102435.28;4854230;29;20025;-75
2023/05/19 01:15:08;;;;;;;22.02;8.77;;;;;;;7.35;90.30;102434.47;4853733;29;20528;-75
2023/05/19 01:17:53;;;;;;;21.75;8.82;;;;;;;7.34;91.00;102435.38;4859524;29;20046;-75
2023/05/19 01:20:34;;;;;;;19.92;7.65;;;;;;;7.34;91.23;102436.25;4850906;29;20092;-75
2023/05/19 01:23:22;;;;;;;18.80;7.60;;;;;;;7.37;90.47;102445.09;4853130;29;20038;-75
2023/05/19 01:26:08;;;;;;;20.55;8.25;;;;;;;7.35;90.52;102439.81;4856277;29;20065;-75
2023/05/19 01:28:58;;;;;;;22.80;8.93;;;;;;;7.29;92.00;102435.53;4860463;29;20528;-75
2023/05/19 01:31:24;;;;;;;;;;;;;;;7.40;89.30;102435.16;4851805;29;20033;-75
2023/05/19 01:33:52;;;;;;;24.38;8.15;;;;;;;7.25;92.55;102439.25;4850821;29;20006;-75
2023/05/19 01:36:20;;;;;;;24.90;8.13;;;;;;;7.23;92.96;102434.88;4860189;29;20066;-75
2023/05/19 01:38:49;;;;;;;20.58;8.93;;;;;;;7.20;93.26;102430.50;4850643;29;20034;-76
2023/05/19 01:41:17;;;;;;;19.30;7.55;;;;;;;7.22;93.20;102434.00;4851813;29;20037;-75
2023/05/19 01:43:43;;;;;;;20.40;7.78;;;;;;;7.23;93.83;102425.03;4852093;29;20475;-75
2023/05/19 01:46:08;;;;;;;20.85;8.48;;;;;;;7.19;93.97;102423.41;4857859;29;20474;-75
2023/05/19 01:48:34;;;;;;;24.63;8.65;;;;;;;7.23;94.39;102422.34;4860486;29;20040;-76
2023/05/19 01:51:00;;;;;;;20.63;7.88;;;;;;;7.26;94.01;102419.59;4851935;29;20200;-75
2023/05/19 01:53:25;;;;;;;18.90;7.72;;;;;;;7.27;93.58;102418.66;4854475;29;20436;-76
2023/05/19 01:55:53;;;;;;;20.73;7.38;;;;;;;7.28;94.58;102416.88;4854790;29;20124;-75
2023/05/19 01:58:44;;;;;;;19.35;7.82;;;;;;;7.31;93.56;102412.28;4856765;29;20029;-75
2023/05/19 02:01:52;;;;;;;19.88;7.63;;;;;;;7.32;94.21;102421.16;4850803;29;20033;-75
2023/05/19 02:04:38;;;;;;;20.52;7.57;;;;;;;7.31;94.04;102408.75;4855633;29;20032;-75
2023/05/19 02:07:34;;;;;;;20.73;7.63;;;;;;;7.31;93.51;102408.75;4851648;29;20041;-75
2023/05/19 02:10:10;;;;;;;22.63;7.78;;;;;;;7.29;94.05;102416.81;4853398;29;20086;-76
2023/05/19 02:12:39;;;;;;;21.35;7.53;;;;;;;7.29;94.13;102416.81;4858212;29;20025;-76
2023/05/19 02:15:14;;;;;;;22.30;8.03;;;;;;;7.30;94.65;102412.34;4860925;29;20828;-75
2023/05/19 02:17:43;;;;;;;22.63;8.18;;;;;;;7.30;94.68;102409.66;4857947;29;20045;-75
2023/05/19 02:20:09;;;;;;;22.92;8.63;;;;;;;7.29;94.75;102411.47;4850836;29;20029;-76
2023/05/19 02:22:42;;;;;;;21.13;7.85;;;;;;;7.26;94.85;102405.34;5117421;27;20378;-74
2023/05/19 02:25:08;;;;;;;22.98;8.38;;;;;;;7.30;94.87;102409.66;5122768;27;20027;-74
2023/05/19 02:27:35;;;;;;;21.05;7.93;;;;;;;7.29;95.08;102411.47;5117366;28;20034;-74
2023/05/19 02:30:00;;;;;;;19.90;7.30;;;;;;;7.29;94.45;102408.81;5115876;28;20119;-74
2023/05/19 02:32:25;;;;;;;26.25;8.75;;;;;;;7.22;94.72;102411.72;5118591;28;20106;-74
2023/05/19 02:34:52;;;;;;;22.73;7.82;;;;;;;7.20;94.55;102409.09;5121554;28;20027;-74
2023/05/19 02:37:17;;;;;;;22.23;8.23;;;;;;;7.20;94.58;102408.22;5121556;27;20015;-74
2023/05/19 02:39:43;;;;;;;19.52;8.23;;;;;;;7.16;94.62;102402.13;5115539;28;20046;-74
2023/05/19 02:42:08;;;;;;;18.98;7.70;;;;;;;7.18;94.68;102393.09;5115934;28;20076;-74
2023/05/19 02:44:34;;;;;;;20.40;8.02;;;;;;;7.14;94.89;102402.16;5110356;28;20115;-74
2023/05/19 02:47:00;;;;;;;19.83;6.97;;;;;;;7.11;94.70;102401.41;5116477;28;20102;-74
2023/05/19 02:49:26;;;;;;;22.17;7.10;;;;;;;7.09;94.69;102400.59;5117411;28;20046;-74
2023/05/19 02:51:52;;;;;;;19.38;7.00;;;;;;;7.05;95.31;102393.59;5107558;27;20027;-74
2023/05/19 02:54:17;;;;;;;22.50;9.20;;;;;;;7.05;95.46;102399.78;5121140;28;20031;-74
2023/05/19 02:56:42;;;;;;;24.80;7.95;;;;;;;7.00;95.44;102397.28;5120195;28;20031;-74
2023/05/19 02:59:07;;;;;;;19.23;7.90;;;;;;;7.01;96.29;102398.16;5116177;28;20020;-74
2023/05/19 03:01:33;;;;;;;22.83;8.23;;;;;;;7.00;95.54;102388.41;5117209;27;20023;-74
2023/05/19 03:03:58;;;;;;;21.25;7.38;;;;;;;7.02;95.68;102391.88;5120037;28;20411;-74
2023/05/19 03:06:23;;;;;;;21.98;7.97;;;;;;;7.03;95.79;102385.63;5114953;28;20036;-74
2023/05/19 03:08:49;;;;;;;22.00;8.38;;;;;;;6.98;95.67;102388.44;5113251;28;20539;-74
2023/05/19 03:11:15;;;;;;;20.75;7.88;;;;;;;6.96;95.95;102390.28;5095017;28;20023;-74
2023/05/19 03:13:41;;;;;;;21.00;8.02;;;;;;;6.91;95.98;102392.25;5101799;28;20123;-74
2023/05/19 03:16:06;;;;;;;21.60;7.88;;;;;;;6.88;95.52;102396.81;5115531;28;20023;-74
2023/05/19 03:18:35;;;;;;;21.73;7.57;;;;;;;6.86;96.03;102398.66;5119710;28;20031;-74
2023/05/19 03:21:00;;;;;;;22.95;8.77;;;;;;;6.82;95.41;102397.88;5111426;27;20048;-74
2023/05/19 03:23:26;;;;;;;19.67;8.35;;;;;;;6.79;95.75;102401.56;5111949;28;20027;-74
2023/05/19 03:25:53;;;;;;;21.15;8.23;;;;;;;6.75;95.79;102401.66;5112473;27;20024;-74
2023/05/19 03:28:18;;;;;;;23.02;8.48;;;;;;;6.71;96.13;102410.75;5117811;27;20039;-74
2023/05/19 03:30:44;;;;;;;23.13;8.38;;;;;;;6.69;95.96;102409.88;5109061;27;20492;-74
2023/05/19 03:33:09;;;;;;;21.58;7.57;;;;;;;6.68;95.79;102410.81;5102057;28;20020;-73
2023/05/19 03:35:35;;;;;;;24.33;8.55;;;;;;;6.65;96.16;102411.81;5103988;28;20024;-74
2023/05/19 03:38:00;;;;;;;21.10;7.65;;;;;;;6.61;96.33;102408.34;5101503;28;20032;-74
2023/05/19 03:40:25;;;;;;;20.90;8.88;;;;;;;6.64;96.79;102404.69;5098941;28;20035;-74
2023/05/19 03:42:53;;;;;;;25.35;9.02;;;;;;;6.62;96.09;102411.91;5097244;28;20023;-74
2023/05/19 03:45:18;;;;;;;26.15;8.55;;;;;;;6.59;96.45;102415.53;5104228;28;20076;-74
2023/05/19 03:47:43;;;;;;;19.95;7.72;;;;;;;6.56;96.33;102412.06;5095705;28;20464;-74
2023/05/19 03:50:09;;;;;;;21.58;8.95;;;;;;;6.52;96.53;102421.13;5098266;28;20028;-74
2023/05/19 03:52:35;;;;;;;19.95;7.95;;;;;;;6.51;97.48;102414.88;5094440;28;20028;-74
2023/05/19 03:55:00;;;;;;;24.38;8.40;;;;;;;6.51;97.58;102419.38;5104382;28;20023;-74
2023/05/19 03:57:25;;;;;;;24.30;8.93;;;;;;;6.48;97.58;102417.66;5106829;28;20028;-74
2023/05/19 03:59:51;;;;;;;20.88;8.07;;;;;;;6.46;97.97;102417.72;5086998;28;20079;-74
2023/05/19 04:02:16;;;;;;;21.25;9.02;;;;;;;6.45;98.06;102410.59;5101093;28;20031;-74
2023/05/19 04:04:41;;;;;;;20.13;7.90;;;;;;;6.50;98.35;102412.28;5105046;28;20062;-74
2023/05/19 04:07:06;;;;;;;21.17;7.72;;;;;;;6.48;98.56;102406.97;5101553;28;20506;-74
2023/05/19 04:09:34;;;;;;;21.38;7.88;;;;;;;6.48;99.00;102406.97;5097186;28;20028;-74
2023/05/19 04:12:00;;;;;;;21.23;9.45;;;;;;;6.50;99.03;102406.94;5096906;28;20030;-74
2023/05/19 04:14:25;;;;;;;21.27;8.65;;;;;;;6.54;99.24;102414.78;5101849;28;20139;-74
2023/05/19 04:16:51;;;;;;;21.42;8.50;;;;;;;6.53;99.50;102407.72;5102955;28;20031;-74
2023/05/19 04:19:16;;;;;;;24.25;8.27;;;;;;;6.56;99.28;102409.41;5100207;28;20023;-74
2023/05/19 04:21:41;;;;;;;23.77;10.68;;;;;;;6.54;100.00;102409.44;5096474;28;20044;-73
2023/05/19 04:24:07;;;;;;;25.27;11.02;;;;;;;6.59;100.00;102401.31;5100156;28;20490;-74
2023/05/19 04:26:33;;;;;;;24.00;9.30;;;;;;;6.60;100.00;102403.94;5104731;28;20042;-74
2023/05/19 04:28:59;;;;;;;23.88;9.57;;;;;;;6.65;100.00;102410.00;5104982;28;20023;-74
2023/05/19 04:31:26;;;;;;;22.42;9.38;;;;;;;6.70;100.00;102407.16;5092513;28;20051;-74
2023/05/19 04:33:52;;;;;;;24.80;9.27;;;;;;;6.75;100.00;102409.69;5098645;28;20102;-74
2023/05/19 04:36:20;;;;;;;20.75;9.00;;;;;;;6.79;100.00;102408.66;5094986;28;20060;-74
2023/05/19 04:38:45;;;;;;;21.30;9.75;;;;;;;6.84;100.00;102412.09;5106012;28;20165;-74
2023/05/19 04:41:11;;;;;;;21.35;9.80;;;;;;;6.90;100.00;102416.34;5088448;28;20103;-74
2023/05/19 04:43:40;;;;;;;23.80;9.82;;;;;;;6.93;100.00;102409.09;5101905;28;20452;-73
2023/05/19 04:46:06;;;;;;;24.83;10.20;;;;;;;6.98;100.00;102409.84;5095963;28;20020;-74
2023/05/19 04:48:32;;;;;;;25.05;9.93;;;;;;;7.04;100.00;102418.56;5099276;28;20043;-74
2023/05/19 04:51:00;;;;;;;23.25;10.20;;;;;;;7.07;100.00;102407.75;5098645;28;20015;-74
2023/05/19 04:53:26;;;;;;;26.23;10.10;;;;;;;7.12;100.00;102411.16;5097820;28;20391;-74
2023/05/19 04:55:51;;;;;;;22.70;9.38;;;;;;;7.17;100.00;102415.44;5088796;28;20042;-74
2023/05/19 04:58:17;;;;;;;22.30;9.73;;;;;;;7.25;100.00;102416.97;5100813;28;20077;-74
2023/05/19 05:00:42;;;;;;;23.52;10.15;;;;;;;7.27;100.00;102413.31;5099991;28;20028;-74
2023/05/19 05:03:07;;;;;;;22.25;10.05;;;;;;;7.34;100.00;102411.31;5096523;28;20031;-74
2023/05/19 05:05:33;;;;;;;22.23;8.77;;;;;;;7.38;100.00;102412.97;5105561;27;20039;-74
2023/05/19 05:07:59;;;;;;;22.15;9.85;;;;;;;7.43;100.00;102404.75;5104139;28;20020;-74
2023/05/19 05:10:24;;;;;;;24.08;10.80;;;;;;;7.47;100.00;102406.41;5098516;28;20024;-74
2023/05/19 05:12:50;;;;;;;29.42;9.93;;;;;;;7.52;100.00;102412.47;5098162;28;20035;-74
2023/05/19 05:15:16;;;;;;;23.42;10.88;;;;;;;7.60;100.00;102413.06;5097270;28;20039;-74
2023/05/19 05:17:42;;;;;;;24.63;11.32;;;;;;;7.65;100.00;102415.56;5100335;28;20024;-74
2023/05/19 05:20:08;;;;;;;24.40;11.27;;;;;;;7.73;100.00;102412.63;5099960;28;20544;-74
2023/05/19 05:22:34;;;;;;;21.98;10.40;;;;;;;7.79;100.00;102415.06;5095542;28;20114;-74
2023/05/19 05:25:00;;;;;;;23.92;11.75;;;;;;;7.83;100.00;102414.91;5104508;28;20148;-73
2023/05/19 05:27:26;;;;;;;24.10;11.00;;;;;;;7.90;100.00;102415.56;5097048;28;20033;-74
2023/05/19 05:29:52;;;;;;;27.05;11.35;;;;;;;7.95;100.00;102429.66;5103356;28;20122;-74
2023/05/19 05:32:17;;;;;;;22.40;10.50;;;;;;;8.03;100.00;102421.34;5099795;28;20658;-74
2023/05/19 05:34:43;;;;;;;23.48;10.85;;;;;;;8.09;100.00;102426.44;5104330;28;20038;-74
2023/05/19 05:37:08;;;;;;;29.17;10.93;;;;;;;8.15;99.80;102425.34;5094016;28;20103;-74
2023/05/19 05:39:33;;;;;;;23.70;10.98;;;;;;;8.18;99.39;102423.41;5103554;28;20031;-74
2023/05/19 05:41:58;;;;;;;23.95;11.07;;;;;;;8.22;99.66;102422.38;5103204;28;20023;-74
2023/05/19 05:44:24;;;;;;;26.85;11.23;;;;;;;8.29;100.00;102425.69;5087539;28;23044;-74
2023/05/19 05:46:49;;;;;;;23.08;10.68;;;;;;;8.32;100.00;102420.22;5102506;28;20478;-74
2023/05/19 05:49:15;;;;;;;28.30;11.10;;;;;;;8.36;99.95;102413.81;5103285;28;20118;-74
2023/05/19 05:51:40;;;;;;;26.70;11.18;;;;;;;8.40;97.90;102419.91;5097245;28;20054;-74
2023/05/19 05:54:06;;;;;;;23.48;11.15;;;;;;;8.47;99.71;102415.25;5085287;28;20036;-74
2023/05/19 05:56:36;;;;;;;28.40;11.00;;;;;;;8.52;98.71;102419.50;5086388;28;20040;-74
2023/05/19 05:59:02;;;;;;;26.10;10.95;;;;;;;8.57;97.82;102420.16;5092698;28;20165;-74
2023/05/19 06:01:29;;;;;;;25.35;11.80;;;;;;;8.67;98.85;102422.50;5084274;28;20118;-74
2023/05/19 06:03:54;;;;;;;22.83;10.75;;;;;;;8.76;99.60;102426.63;5100624;28;20029;-74
2023/05/19 06:06:20;;;;;;;24.75;10.75;;;;;;;8.85;97.30;102426.22;5094007;28;20024;-74
2023/05/19 06:08:45;;;;;;;21.70;9.57;;;;;;;8.94;96.15;102431.22;5097202;28;20035;-74
2023/05/19 06:11:10;;;;;;;23.80;11.07;;;;;;;9.04;97.13;102429.91;5102458;28;20019;-74
2023/05/19 06:13:37;;;;;;;26.83;10.40;;;;;;;9.13;96.62;102431.31;5089176;28;20113;-74
2023/05/19 06:16:03;;;;;;;21.85;11.00;;;;;;;9.22;97.23;102435.44;5096449;28;20024;-74
2023/05/19 06:18:28;;;;;;;24.98;11.55;;;;;;;9.29;96.31;102433.38;5099834;28;20024;-74
2023/05/19 06:20:54;;;;;;;24.88;11.45;;;;;;;9.36;95.06;102432.19;5086616;28;20048;-74
2023/05/19 06:23:19;;;;;;;22.50;10.18;;;;;;;9.44;96.51;102425.53;5079173;28;20384;-74
2023/05/19 06:25:44;;;;;;;26.83;11.20;;;;;;;9.53;96.45;102429.63;5093143;28;20390;-74
2023/05/19 06:28:10;;;;;;;26.30;10.85;;;;;;;9.58;93.25;102438.34;5091539;28;20051;-74
2023/05/19 06:30:35;;;;;;;22.33;9.63;;;;;;;9.61;92.50;102431.97;5099953;28;20027;-74
2023/05/19 06:33:02;;;;;;;23.52;10.25;;;;;;;9.65;93.49;102441.66;5093240;28;20672;-73
2023/05/19 06:35:27;;;;;;;23.42;10.73;;;;;;;9.71;93.20;102433.31;5097559;28;20027;-74
2023/05/19 06:37:54;;;;;;;25.60;11.45;;;;;;;9.78;94.92;102439.25;5106326;28;20028;-72
2023/05/19 06:40:20;;;;;;;24.92;11.73;;;;;;;9.84;94.58;102433.66;5112467;28;20105;-74
2023/05/19 06:42:45;;;;;;;26.83;11.07;;;;;;;9.90;94.15;102440.56;5101451;28;20031;-74
2023/05/19 06:45:10;;;;;;;23.80;9.95;;;;;;;9.92;93.25;102430.59;5102029;28;20030;-73
2023/05/19 06:47:36;;;;;;;26.23;11.02;;;;;;;9.95;91.01;102431.31;5095262;28;20464;-73
2023/05/19 06:50:01;;;;;;;26.13;10.90;;;;;;;10.00;91.00;102431.16;5089646;28;20043;-75
2023/05/19 06:52:26;;;;;;;24.52;10.93;;;;;;;10.08;91.50;102434.34;5085859;28;20024;-74
2023/05/19 06:54:52;;;;;;;24.63;11.18;;;;;;;10.15;93.54;102427.75;5083931;28;20507;-73
2023/05/19 06:57:17;;;;;;;25.95;10.85;;;;;;;10.23;93.18;102430.06;5091780;28;20024;-73
2023/05/19 06:59:44;;;;;;;23.85;10.65;;;;;;;10.29;91.60;102431.59;5091168;28;20112;-74
2023/05/19 07:02:09;;;;;;;24.17;9.88;;;;;;;10.35;91.44;102428.66;5099405;28;20110;-73
2023/05/19 07:04:35;;;;;;;23.90;11.82;;;;;;;10.40;92.56;102426.63;5097088;28;20102;-73
2023/05/19 07:07:00;;;;;;;26.33;11.65;;;;;;;10.46;91.07;102434.41;5102404;28;20035;-75
2023/05/19 07:09:25;;;;;;;26.80;11.02;;;;;;;10.53;91.57;102431.41;5101999;28;20128;-73
2023/05/19 07:11:51;;;;;;;21.75;10.15;;;;;;;10.59;90.86;102431.13;5093317;28;20020;-73
2023/05/19 07:14:16;;;;;;;27.25;11.40;;;;;;;10.67;90.42;102428.94;5095630;28;20051;-73
2023/05/19 07:16:41;;;;;;;22.42;10.52;;;;;;;10.74;90.83;102435.75;5099327;28;20024;-73
2023/05/19 07:19:06;;;;;;;22.02;9.57;;;;;;;10.82;90.47;102433.56;5105355;28;20471;-73
2023/05/19 07:21:32;;;;;;;26.67;10.02;;;;;;;10.89;88.81;102431.44;5106684;28;20039;-74
2023/05/19 07:23:57;;;;;;;24.67;11.00;;;;;;;10.98;87.64;102443.56;5101375;28;20111;-73
2023/05/19 07:26:22;;;;;;;23.67;9.73;;;;;;;11.05;87.95;102430.69;5100732;28;20023;-73
2023/05/19 07:28:48;;;;;;;24.63;10.60;;;;;;;11.15;88.74;102434.66;5104893;28;20039;-73
2023/05/19 07:31:13;;;;;;;23.25;10.25;;;;;;;11.25;88.06;102432.38;5087588;28;20460;-73
2023/05/19 07:33:39;;;;;;;23.05;9.98;;;;;;;11.33;88.19;102432.84;5104561;28;20020;-73
2023/05/19 07:36:05;;;;;;;24.88;9.98;;;;;;;11.44;89.19;102432.31;5095787;28;20035;-73
2023/05/19 07:38:33;;;;;;;22.42;9.93;;;;;;;11.56;89.33;102428.97;5092596;28;20396;-73
2023/05/19 07:40:58;;;;;;;23.02;9.40;;;;;;;11.61;84.79;102426.91;5104304;28;20117;-74
2023/05/19 07:43:23;;;;;;;21.65;8.20;;;;;;;11.70;86.32;102425.56;5109073;28;20047;-73
2023/05/19 07:45:49;;;;;;;23.67;8.95;;;;;;;11.76;82.62;102430.63;5099001;28;20517;-73
2023/05/19 07:48:17;;;;;;;22.08;9.23;;;;;;;11.85;85.74;102416.66;5097603;28;20024;-73
2023/05/19 07:50:42;;;;;;;22.77;8.60;;;;;;;11.89;80.84;102414.69;5086654;28;20024;-73
2023/05/19 07:53:07;;;;;;;21.83;8.77;;;;;;;11.95;82.32;102417.06;5086472;28;20121;-73
2023/05/19 07:55:33;;;;;;;23.10;8.95;;;;;;;12.00;82.72;102414.97;5080877;28;20032;-73
2023/05/19 07:57:58;;;;;;;23.95;10.20;;;;;;;12.07;81.79;102411.00;5101405;28;20034;-76
2023/05/19 08:00:23;;;;;;;24.00;10.02;;;;;;;12.15;81.93;102417.81;5102957;28;20054;-73
2023/05/19 08:02:49;;;;;;;23.83;9.27;;;;;;;12.26;83.30;102419.94;5106735;28;20411;-73
2023/05/19 08:05:14;;;;;;;20.13;8.32;;;;;;;12.33;81.56;102413.22;5098746;28;20040;-73
2023/05/19 08:07:39;;;;;;;21.02;7.70;;;;;;;12.37;81.16;102412.97;5100867;28;20057;-74
2023/05/19 08:10:05;;;;;;;21.77;8.95;;;;;;;12.43;79.08;102413.56;5105068;28;20085;-74
2023/05/19 08:12:31;;;;;;;20.10;8.02;;;;;;;12.51;77.79;102411.31;5105909;28;20024;-75
2023/05/19 08:14:56;;;;;;;21.25;8.82;;;;;;;12.56;77.92;102414.63;5103053;28;20055;-74
2023/05/19 08:17:22;;;;;;;20.67;8.05;;;;;;;12.57;78.28;102405.56;5105252;28;20558;-74
2023/05/19 08:19:47;;;;;;;23.08;8.13;;;;;;;12.63;76.65;102413.31;5105026;28;20130;-74
2023/05/19 08:22:12;;;;;;;22.27;8.02;;;;;;;12.74;77.50;102404.63;5094307;28;20048;-74
2023/05/19 08:24:38;;;;;;;20.42;7.90;;;;;;;12.87;82.21;102402.06;5097645;28;20045;-74
2023/05/19 08:27:03;;;;;;;20.60;8.07;;;;;;;12.91;78.52;102398.22;5102105;28;20036;-74
2023/05/19 08:29:29;;;;;;;23.02;8.27;;;;;;;12.99;77.95;102400.47;5103075;28;20046;-74
2023/05/19 08:31:54;;;;;;;19.63;7.72;;;;;;;13.05;77.55;102398.28;5100286;28;20016;-74
2023/05/19 08:34:21;;;;;;;20.50;8.20;;;;;;;13.11;78.89;102395.22;5098266;28;20024;-74
2023/05/19 08:36:46;;;;;;;24.00;7.85;;;;;;;13.23;75.58;102388.22;5095189;28;20468;-74
2023/05/19 08:39:12;;;;;;;21.13;7.78;;;;;;;13.33;78.81;102380.44;5096248;28;20016;-74
2023/05/19 08:41:38;;;;;;;20.35;7.18;;;;;;;13.36;73.53;102385.69;5096818;28;20027;-74
2023/05/19 08:44:04;;;;;;;20.92;7.55;;;;;;;13.45;74.38;102387.81;5107419;28;20031;-73
2023/05/19 08:46:29;;;;;;;20.52;7.05;;;;;;;13.51;75.09;102378.47;5103208;28;20063;-74
2023/05/19 08:49:10;;;;;;;22.88;8.25;;;;;;;13.64;75.58;102376.75;5102689;28;20415;-74
2023/05/19 08:52:09;;;;;;;22.83;8.27;;;;;;;13.75;75.07;102377.94;5106785;27;20031;-74
2023/05/19 08:55:03;;;;;;;22.85;7.35;;;;;;;13.89;73.65;102368.97;5096876;28;20032;-74
2023/05/19 08:57:29;;;;;;;20.52;7.25;;;;;;;14.05;76.22;102363.44;5077056;28;20096;-74
2023/05/19 08:59:55;;;;;;;20.73;7.65;;;;;;;14.14;70.10;102379.06;5104695;28;20028;-74
2023/05/19 09:02:21;;;;;;;17.67;6.03;;;;;;;14.24;70.52;102369.41;5099907;28;20042;-75
2023/05/19 09:04:47;;;;;;;16.95;6.00;;;;;;;14.30;68.82;102369.00;5090738;28;20033;-73
2023/05/19 09:07:14;;;;;;;15.32;5.55;;;;;;;14.34;67.67;102367.84;5110878;28;20027;-69
2023/05/19 09:09:42;;;;;;;21.63;6.45;;;;;;;14.39;67.43;102366.66;5102773;28;20484;-70
2023/05/19 09:12:09;;;;;;;15.35;5.10;;;;;;;14.46;69.20;102359.91;5103418;28;20027;-69
2023/05/19 09:14:35;;;;;;;19.17;5.28;;;;;;;14.51;66.50;102358.63;5102208;28;20035;-69
2023/05/19 09:17:01;;;;;;;14.60;5.03;;;;;;;14.55;69.54;102361.97;5085089;28;20383;-71
2023/05/19 09:19:30;;;;;;;16.75;4.93;;;;;;;14.62;67.31;102349.81;5085385;28;20031;-73
2023/05/19 09:21:59;;;;;;;20.33;5.20;;;;;;;14.58;63.45;102355.50;5088529;28;20044;-72
2023/05/19 09:24:25;;;;;;;15.18;4.50;;;;;;;14.65;66.37;102348.75;5092090;28;20544;-70
2023/05/19 09:26:55;;;;;;;14.65;4.47;;;;;;;14.68;63.93;102352.16;5105590;28;20027;-68
2023/05/19 09:29:20;;;;;;;18.67;4.90;;;;;;;14.79;63.55;102339.72;5092287;28;20491;-69
2023/05/19 09:31:54;;;;;;;19.13;4.35;;;;;;;14.88;60.84;102341.81;5086174;28;20047;-71
2023/05/19 09:34:21;;;;;;;19.15;4.28;;;;;;;14.95;57.62;102344.94;5094417;28;20024;-69
2023/05/19 09:36:53;;;;;;;13.05;3.85;;;;;;;15.05;62.97;102343.34;5104548;28;20018;-69
2023/05/19 09:39:20;;;;;;;16.02;4.03;;;;;;;15.07;56.59;102340.56;5104930;28;20100;-70
2023/05/19 09:41:50;;;;;;;11.80;3.92;;;;;;;15.16;59.86;102337.19;5097847;28;20031;-69
2023/05/19 09:44:22;;;;;;;11.45;3.72;;;;;;;15.25;63.44;102333.00;5102018;28;20084;-69
2023/05/19 09:46:49;;;;;;;10.38;3.45;;;;;;;15.27;60.98;102331.91;5099849;28;20047;-70
2023/05/19 09:49:22;;;;;;;11.65;3.78;;;;;;;15.26;57.94;102340.16;5105071;28;20094;-69
2023/05/19 09:51:58;;;;;;;13.48;3.85;;;;;;;15.26;55.25;102346.44;5099406;28;20020;-69
2023/05/19 09:54:25;;;;;;;15.88;4.05;;;;;;;15.21;54.87;102343.16;5097645;28;20034;-69
2023/05/19 09:57:01;;;;;;;11.20;4.00;;;;;;;15.25;58.75;102349.25;5091243;28;20024;-70
2023/05/19 09:59:27;;;;;;;15.38;4.07;;;;;;;15.24;56.52;102342.94;5078757;28;20111;-71
2023/05/19 10:01:57;;;;;;;17.83;4.55;;;;;;;15.27;58.94;102340.03;5088112;28;20545;-71
2023/05/19 10:04:25;;;;;;;15.10;3.72;;;;;;;15.45;65.26;102334.31;5095331;28;20292;-70
2023/05/19 10:06:52;;;;;;;10.85;3.60;;;;;;;15.47;62.89;102338.63;5101604;28;20120;-76
2023/05/19 10:09:22;;;;;;;13.73;3.55;;;;;;;15.54;61.18;102339.94;5104585;28;20031;-70
2023/05/19 10:11:50;;;;;;;11.98;3.55;;;;;;;15.50;57.49;102335.69;5101157;28;20024;-68
2023/05/19 10:14:17;;;;;;;12.80;4.15;;;;;;;15.45;53.52;102328.91;5082611;28;20032;-75
2023/05/19 10:16:44;;;;;;;14.63;4.70;;;;;;;15.43;56.15;102330.81;5091260;28;20077;-74
2023/05/19 10:19:11;;;;;;;14.23;3.42;;;;;;;15.45;58.85;102326.19;5101000;28;20031;-74
2023/05/19 10:21:37;;;;;;;19.05;4.45;;;;;;;15.48;57.42;102329.53;5100687;28;20143;-75
2023/05/19 10:24:02;;;;;;;17.17;3.90;;;;;;;15.53;60.78;102324.66;5086793;28;20102;-74
2023/05/19 10:26:28;;;;;;;14.13;3.70;;;;;;;15.57;56.50;102328.00;5090718;28;20368;-74
2023/05/19 10:28:55;;;;;;;12.02;3.42;;;;;;;15.62;61.65;102327.69;5098851;28;20028;-74
2023/05/19 10:31:22;;;;;;;12.10;3.55;;;;;;;15.61;57.58;102334.06;5084862;28;20024;-74
2023/05/19 10:34:18;;;;;;;13.77;3.85;;;;;;;15.61;56.53;102328.66;5089509;28;20023;-73
2023/05/19 10:36:46;;;;;;;13.55;3.75;;;;;;;15.58;53.32;102315.31;5098033;28;20117;-74
2023/05/19 10:39:28;;;;;;;9.63;3.05;;;;;;;15.65;56.69;102313.91;5080216;28;20055;-74
2023/05/19 10:42:06;;;;;;;12.25;3.75;;;;;;;15.69;54.22;102318.13;5092392;28;20051;-74
2023/05/19 10:44:59;;;;;;;12.65;3.67;;;;;;;15.74;57.24;102307.84;5099295;28;20023;-74
2023/05/19 10:47:25;;;;;;;15.95;4.88;;;;;;;15.81;55.26;102309.16;5088338;28;20058;-74
2023/05/19 10:49:53;;;;;;;15.77;4.22;;;;;;;15.88;57.47;102309.56;5097525;28;20411;-74
2023/05/19 10:52:25;;;;;;;12.40;4.03;;;;;;;15.90;57.46;102311.22;5108662;28;20030;-74
2023/05/19 10:54:53;;;;;;;16.35;3.75;;;;;;;15.91;56.86;102312.06;5107639;28;20038;-74
2023/05/19 10:57:24;;;;;;;12.82;4.47;;;;;;;15.84;50.55;102308.94;5103771;28;20082;-74
2023/05/19 10:59:50;;;;;;;14.15;4.28;;;;;;;15.87;52.39;102302.41;5106036;28;20484;-74
2023/05/19 11:02:38;;;;;;;18.25;4.55;;;;;;;15.95;58.56;102305.44;5107228;28;20096;-74
2023/05/19 11:05:16;;;;;;;16.15;4.97;;;;;;;16.01;57.58;102310.41;5105976;27;20152;-74
2023/05/19 11:07:43;;;;;;;19.88;4.75;;;;;;;16.06;55.46;102297.41;5105869;28;20475;-74
2023/05/19 11:10:10;;;;;;;16.10;3.97;;;;;;;16.13;55.73;102305.06;5108804;28;20107;-74
2023/05/19 11:12:44;;;;;;;12.07;3.88;;;;;;;16.13;52.90;102302.34;5108904;28;20173;-74
2023/05/19 11:15:13;;;;;;;14.65;4.32;;;;;;;16.11;51.13;102298.91;5105979;28;20027;-74
2023/05/19 11:17:41;;;;;;;10.50;3.95;;;;;;;16.03;52.56;102303.03;5100313;28;20031;-74
2023/05/19 11:20:10;;;;;;;15.57;4.45;;;;;;;16.07;54.59;102290.97;5106845;28;20369;-74
2023/05/19 11:22:35;;;;;;;15.48;4.55;;;;;;;16.07;53.68;102299.09;5101048;28;20085;-74